Time;durP1;ratioP1;P1;durP2;ratioP2;P2;SDS_P1;SDS_P2;PMS_P1;PMS_P2;Temp;Humidity;BMP_temperature;BMP_pressure;BME280_temperature;BME280_humidity;BME280_pressure;Samples;Min_cycle;Max_cycle;Signal;HPM_P1;HPM_P2
2021/10/28 00:14:23;;;;;;;25.27;14.95;;;12.40;82.90;;;;;;5096617;28;20219;-82
2021/10/28 00:16:50;;;;;;;29.92;15.80;;;12.50;82.90;;;;;;5112717;28;20191;-81
2021/10/28 00:19:17;;;;;;;32.60;17.42;;;12.40;82.90;;;;;;5095167;28;20184;-81
2021/10/28 00:21:44;;;;;;;27.02;16.52;;;12.40;83.20;;;;;;5095300;28;20195;-81
2021/10/28 00:24:11;;;;;;;25.75;16.42;;;12.40;83.20;;;;;;5090372;28;20191;-81
2021/10/28 00:26:45;;;;;;;24.50;15.98;;;12.40;83.10;;;;;;5085173;28;20211;-81
2021/10/28 00:29:17;;;;;;;29.58;17.73;;;12.40;83.00;;;;;;5092467;28;20184;-81
2021/10/28 00:31:44;;;;;;;28.55;15.77;;;12.40;82.80;;;;;;5077790;28;20242;-81
2021/10/28 00:34:12;;;;;;;35.95;16.83;;;12.40;82.80;;;;;;5077580;28;20196;-81
2021/10/28 00:36:39;;;;;;;31.38;18.10;;;12.40;82.80;;;;;;5078305;28;20638;-81
2021/10/28 00:39:08;;;;;;;30.05;19.58;;;12.40;82.90;;;;;;5090706;28;20206;-81
2021/10/28 00:41:35;;;;;;;37.58;19.15;;;12.30;82.90;;;;;;5097770;28;20593;-81
2021/10/28 00:44:02;;;;;;;25.23;17.75;;;12.30;83.20;;;;;;5097956;28;20199;-81
2021/10/28 00:46:31;;;;;;;29.58;20.90;;;12.40;83.00;;;;;;5097836;28;20202;-81
2021/10/28 00:48:59;;;;;;;31.33;18.40;;;12.30;82.90;;;;;;5098706;28;20606;-81
2021/10/28 00:51:27;;;;;;;33.33;20.10;;;12.40;82.90;;;;;;5089893;28;20208;-81
2021/10/28 00:53:55;;;;;;;29.42;18.02;;;12.40;82.80;;;;;;5077367;28;20200;-82
2021/10/28 00:56:23;;;;;;;27.30;18.30;;;12.50;82.50;;;;;;5079219;28;20267;-81
2021/10/28 00:58:49;;;;;;;36.72;19.88;;;12.50;82.40;;;;;;5098406;28;20172;-81
2021/10/28 01:01:15;;;;;;;31.50;19.10;;;12.50;82.20;;;;;;5099500;28;20183;-81
2021/10/28 01:03:42;;;;;;;30.55;19.13;;;12.30;82.20;;;;;;5080561;28;20318;-81
2021/10/28 01:06:09;;;;;;;29.60;17.80;;;12.10;82.40;;;;;;5095327;28;20242;-81
2021/10/28 01:08:41;;;;;;;24.58;15.93;;;12.00;82.80;;;;;;5080191;28;20647;-82
2021/10/28 01:11:08;;;;;;;25.95;16.05;;;12.00;83.00;;;;;;5083075;28;20274;-81
2021/10/28 01:13:34;;;;;;;29.83;17.15;;;11.90;83.30;;;;;;5102219;28;20191;-82
2021/10/28 01:16:01;;;;;;;29.85;16.83;;;11.90;83.40;;;;;;5094795;28;20181;-81
2021/10/28 01:18:28;;;;;;;42.05;17.10;;;11.80;83.50;;;;;;5096401;28;20592;-81
2021/10/28 01:20:55;;;;;;;32.00;16.55;;;11.90;83.80;;;;;;5094496;28;20255;-81
2021/10/28 01:23:23;;;;;;;28.63;17.35;;;11.90;83.80;;;;;;5103600;28;20202;-81
2021/10/28 01:25:52;;;;;;;24.80;15.05;;;11.80;83.80;;;;;;5103115;28;20180;-81
2021/10/28 01:28:19;;;;;;;28.45;15.27;;;11.90;84.10;;;;;;5083124;28;20177;-81
2021/10/28 01:30:50;;;;;;;25.17;15.15;;;11.90;84.00;;;;;;5082906;28;20177;-81
2021/10/28 01:33:17;;;;;;;20.13;14.63;;;11.90;83.90;;;;;;5083003;28;20203;-81
2021/10/28 01:35:43;;;;;;;22.98;15.02;;;11.90;83.90;;;;;;5082941;28;20188;-81
2021/10/28 01:38:11;;;;;;;19.33;13.70;;;11.90;83.80;;;;;;5090579;28;20176;-82
2021/10/28 01:40:37;;;;;;;22.85;14.50;;;11.90;83.70;;;;;;5080956;28;20229;-82
2021/10/28 01:43:03;;;;;;;27.15;15.65;;;12.00;83.70;;;;;;5076400;28;20180;-82
2021/10/28 01:45:29;;;;;;;25.52;15.00;;;11.90;83.70;;;;;;5077389;28;20180;-81
2021/10/28 01:47:55;;;;;;;35.17;15.70;;;11.90;83.50;;;;;;5076337;28;20542;-81
2021/10/28 01:50:21;;;;;;;27.93;13.70;;;12.00;83.40;;;;;;5076227;28;20229;-81
2021/10/28 01:52:47;;;;;;;20.75;13.80;;;11.90;83.40;;;;;;5078833;28;20200;-81
2021/10/28 01:55:13;;;;;;;27.03;13.83;;;11.80;83.40;;;;;;5096107;28;20229;-81
2021/10/28 01:57:40;;;;;;;25.75;13.95;;;11.80;83.50;;;;;;5100075;28;20279;-81
2021/10/28 02:00:19;;;;;;;22.25;12.52;;;11.90;83.60;;;;;;5100624;28;20243;-81
2021/10/28 02:02:45;;;;;;;20.33;12.93;;;12.00;83.20;;;;;;5107311;28;20321;-81
2021/10/28 02:05:15;;;;;;;24.08;13.65;;;11.90;83.00;;;;;;5112479;28;20202;-81
2021/10/28 02:07:41;;;;;;;19.70;13.30;;;11.90;83.00;;;;;;5099188;28;20272;-81
2021/10/28 02:10:08;;;;;;;22.02;12.68;;;11.90;83.00;;;;;;5088969;28;20203;-81
2021/10/28 02:12:36;;;;;;;27.65;13.77;;;11.80;83.10;;;;;;5099769;28;20199;-81
2021/10/28 02:15:03;;;;;;;28.48;12.68;;;11.80;83.10;;;;;;5120538;27;20215;-81
2021/10/28 02:17:29;;;;;;;19.10;12.60;;;11.80;83.20;;;;;;5134541;28;20163;-81
2021/10/28 02:19:54;;;;;;;18.43;11.63;;;11.90;83.10;;;;;;5124566;28;20286;-81
2021/10/28 02:22:20;;;;;;;18.73;12.17;;;11.90;83.00;;;;;;5119999;28;20175;-81
2021/10/28 02:24:46;;;;;;;19.37;12.20;;;11.90;83.00;;;;;;5092910;28;20200;-82
2021/10/28 02:27:13;;;;;;;18.95;12.30;;;11.90;82.90;;;;;;5078250;28;20192;-82
2021/10/28 02:29:39;;;;;;;18.40;11.70;;;11.80;82.90;;;;;;5094998;28;20195;-81
2021/10/28 02:32:05;;;;;;;17.23;11.35;;;11.70;83.10;;;;;;5098410;28;20203;-82
2021/10/28 02:34:31;;;;;;;20.30;11.10;;;11.60;83.20;;;;;;5083083;28;20224;-82
2021/10/28 02:36:57;;;;;;;16.80;12.17;;;11.60;83.10;;;;;;5078234;28;20230;-82
2021/10/28 02:39:22;;;;;;;16.97;12.23;;;11.70;83.10;;;;;;5078305;28;20176;-82
2021/10/28 02:41:48;;;;;;;14.27;10.63;;;11.70;82.90;;;;;;5097012;28;20184;-82
2021/10/28 02:44:14;;;;;;;16.47;12.53;;;11.60;83.50;;;;;;5077586;28;20200;-82
2021/10/28 02:46:41;;;;;;;17.90;9.90;;;11.60;82.80;;;;;;5079100;28;20208;-81
2021/10/28 02:49:13;;;;;;;27.98;11.20;;;11.60;83.00;;;;;;5077973;28;20419;-81
2021/10/28 02:51:39;;;;;;;11.68;9.00;;;11.50;83.20;;;;;;5078331;28;20204;-81
2021/10/28 02:54:05;;;;;;;16.63;10.75;;;11.50;83.20;;;;;;5082066;28;20240;-81
2021/10/28 02:56:31;;;;;;;15.40;10.97;;;11.50;83.30;;;;;;5088346;28;20177;-81
2021/10/28 02:58:57;;;;;;;17.77;10.33;;;11.50;83.40;;;;;;5079553;28;20409;-81
2021/10/28 03:01:22;;;;;;;18.13;9.93;;;11.40;83.50;;;;;;5079346;28;20564;-81
2021/10/28 03:03:48;;;;;;;12.40;9.10;;;11.50;83.70;;;;;;5077462;28;20201;-81
2021/10/28 03:06:14;;;;;;;14.97;8.90;;;11.40;83.50;;;;;;5080494;28;20184;-82
2021/10/28 03:08:39;;;;;;;14.57;9.70;;;11.30;83.80;;;;;;5078931;28;20184;-81
2021/10/28 03:11:08;;;;;;;12.73;8.40;;;11.40;83.80;;;;;;5091738;28;20547;-81
2021/10/28 03:13:35;;;;;;;17.23;9.70;;;11.40;83.90;;;;;;5117134;28;20198;-82
2021/10/28 03:16:12;;;;;;;24.52;10.82;;;11.50;83.70;;;;;;5120113;28;20212;-82
2021/10/28 03:26:50;;;;;;;11.02;8.38;;;11.60;83.50;;;;;;5114421;28;20190;-81
2021/10/28 03:29:15;;;;;;;13.60;9.13;;;11.50;83.50;;;;;;5113396;28;20580;-81
2021/10/28 03:31:41;;;;;;;14.77;9.20;;;11.40;84.20;;;;;;5112470;28;20192;-81
2021/10/28 03:34:07;;;;;;;14.93;9.13;;;11.50;83.70;;;;;;5097408;28;20429;-81
2021/10/28 03:36:43;;;;;;;12.68;8.80;;;11.50;83.70;;;;;;5099715;28;20251;-81
2021/10/28 04:08:49;;;;;;;15.55;8.75;;;11.20;84.00;;;;;;5093086;28;20191;-81
2021/10/28 04:19:28;;;;;;;11.40;8.23;;;11.30;84.50;;;;;;5099287;28;20180;-81
2021/10/28 04:30:08;;;;;;;13.45;8.80;;;11.40;83.90;;;;;;5107861;28;20178;-81
2021/10/28 04:32:34;;;;;;;18.90;9.40;;;11.40;83.70;;;;;;5102551;28;20219;-82
2021/10/28 04:34:59;;;;;;;16.33;8.77;;;11.30;83.50;;;;;;5101945;28;20200;-81
2021/10/28 04:37:25;;;;;;;12.53;9.10;;;11.20;83.60;;;;;;5097453;28;20259;-81
2021/10/28 04:39:52;;;;;;;12.88;8.98;;;11.30;83.80;;;;;;5078354;28;20910;-81
2021/10/28 04:42:17;;;;;;;13.95;9.10;;;11.20;83.50;;;;;;5089379;28;20271;-81
2021/10/28 04:44:43;;;;;;;17.77;10.13;;;11.30;83.70;;;;;;5096832;28;20678;-81
2021/10/28 04:47:09;;;;;;;19.50;9.10;;;11.20;83.50;;;;;;5097964;28;20441;-81
2021/10/28 04:49:35;;;;;;;15.40;8.93;;;11.10;83.60;;;;;;5083572;28;20176;-82
2021/10/28 04:52:01;;;;;;;21.13;10.23;;;11.20;83.60;;;;;;5085639;28;20515;-81
2021/10/28 04:54:26;;;;;;;13.45;8.80;;;11.10;83.70;;;;;;5096415;28;20192;-81
2021/10/28 04:56:52;;;;;;;13.23;10.03;;;11.10;83.80;;;;;;5095753;28;20188;-81
2021/10/28 04:59:18;;;;;;;16.17;9.13;;;11.20;83.80;;;;;;5096717;28;20184;-80
2021/10/28 05:01:44;;;;;;;13.63;9.40;;;11.00;83.60;;;;;;5098291;28;20247;-80
2021/10/28 05:04:10;;;;;;;12.80;9.33;;;11.10;83.90;;;;;;5100346;28;20200;-80
2021/10/28 05:06:36;;;;;;;22.95;11.40;;;11.10;83.90;;;;;;5080247;28;20434;-80
2021/10/28 05:09:03;;;;;;;16.77;10.85;;;11.10;83.80;;;;;;5082516;28;20230;-80
2021/10/28 05:11:29;;;;;;;16.63;9.43;;;11.10;83.70;;;;;;5091545;28;20250;-81
2021/10/28 05:13:55;;;;;;;16.53;10.93;;;11.10;83.70;;;;;;5130255;28;20191;-80
2021/10/28 05:16:21;;;;;;;16.77;9.67;;;11.10;83.50;;;;;;5133769;28;20206;-80
2021/10/28 05:18:47;;;;;;;23.20;9.30;;;11.10;83.40;;;;;;5131987;28;20413;-80
2021/10/28 05:21:14;;;;;;;16.10;10.70;;;11.10;83.20;;;;;;5111968;28;20183;-80
2021/10/28 05:23:41;;;;;;;17.75;11.10;;;11.10;83.20;;;;;;5103453;28;20448;-81
2021/10/28 05:26:07;;;;;;;26.00;11.10;;;11.10;83.30;;;;;;5109975;28;20237;-80
2021/10/28 05:28:34;;;;;;;25.88;10.68;;;11.10;83.00;;;;;;5085351;28;20181;-80
2021/10/28 05:30:59;;;;;;;19.65;10.98;;;11.10;83.00;;;;;;5079928;28;20194;-80
2021/10/28 05:33:25;;;;;;;19.30;11.60;;;11.10;82.80;;;;;;5081385;28;20681;-80
2021/10/28 05:35:51;;;;;;;19.00;10.83;;;11.10;82.90;;;;;;5080319;28;20459;-80
2021/10/28 05:38:18;;;;;;;13.90;9.55;;;11.00;82.90;;;;;;5079917;28;20810;-80
2021/10/28 05:40:43;;;;;;;20.95;11.77;;;11.10;83.10;;;;;;5080961;28;20176;-81
2021/10/28 05:43:10;;;;;;;18.37;11.37;;;11.00;83.10;;;;;;5082756;28;20184;-82
2021/10/28 05:45:36;;;;;;;22.38;11.63;;;11.00;83.70;;;;;;5103457;28;20264;-82
2021/10/28 05:48:03;;;;;;;21.23;11.52;;;11.00;82.90;;;;;;5094014;28;20901;-82
2021/10/28 05:50:30;;;;;;;17.08;11.55;;;11.00;83.00;;;;;;5094704;28;20186;-82
2021/10/28 05:52:57;;;;;;;24.60;11.38;;;11.00;83.10;;;;;;5098947;28;20210;-83
2021/10/28 05:55:24;;;;;;;19.23;11.55;;;11.00;83.00;;;;;;5092645;28;20256;-82
2021/10/28 05:57:52;;;;;;;20.95;12.25;;;10.90;83.10;;;;;;5088941;28;20302;-82
2021/10/28 06:00:19;;;;;;;13.90;10.82;;;10.90;83.30;;;;;;5092514;28;20180;-81
2021/10/28 06:02:45;;;;;;;24.60;12.70;;;10.90;83.20;;;;;;5089581;28;20206;-82
2021/10/28 06:05:11;;;;;;;23.73;11.33;;;10.80;83.30;;;;;;5095436;28;20192;-81
2021/10/28 06:07:39;;;;;;;26.83;12.15;;;10.90;83.60;;;;;;5098780;28;20837;-82
2021/10/28 06:10:05;;;;;;;28.20;12.45;;;10.80;83.50;;;;;;5099771;28;20192;-82
2021/10/28 06:12:40;;;;;;;21.90;12.88;;;10.90;83.50;;;;;;5106790;28;20199;-82
2021/10/28 06:15:07;;;;;;;19.90;12.05;;;10.90;83.40;;;;;;5119825;28;20214;-82
2021/10/28 06:17:35;;;;;;;19.30;11.50;;;10.90;83.40;;;;;;5120470;28;20224;-82
2021/10/28 06:20:03;;;;;;;22.52;12.38;;;11.00;83.20;;;;;;5121736;28;20168;-82
2021/10/28 06:22:29;;;;;;;23.25;12.13;;;11.00;83.10;;;;;;5103455;28;20209;-82
2021/10/28 06:24:56;;;;;;;18.88;12.70;;;10.90;83.10;;;;;;5119565;28;20202;-82
2021/10/28 06:27:22;;;;;;;19.35;12.52;;;10.80;83.20;;;;;;5119572;28;20182;-82
2021/10/28 06:29:48;;;;;;;29.17;12.90;;;10.90;83.30;;;;;;5120382;28;20183;-82
2021/10/28 06:32:14;;;;;;;23.47;14.00;;;11.10;83.10;;;;;;5120307;28;20463;-83
2021/10/28 06:34:43;;;;;;;20.77;12.35;;;11.10;82.80;;;;;;5099220;28;20207;-83
2021/10/28 06:37:10;;;;;;;18.98;12.00;;;10.90;82.80;;;;;;5102150;28;20623;-83
2021/10/28 06:39:36;;;;;;;17.20;12.40;;;11.00;82.80;;;;;;5100044;28;20182;-83
2021/10/28 06:42:03;;;;;;;20.30;13.10;;;11.10;82.60;;;;;;5100496;28;20531;-82
2021/10/28 06:44:30;;;;;;;19.67;11.73;;;11.10;82.60;;;;;;5098661;28;20200;-83
2021/10/28 06:46:56;;;;;;;21.70;11.00;;;11.00;82.60;;;;;;5098874;28;20654;-83
2021/10/28 06:49:23;;;;;;;23.27;13.88;;;11.10;82.70;;;;;;5098853;28;20190;-83
2021/10/28 06:51:49;;;;;;;24.00;12.15;;;11.10;82.40;;;;;;5098392;28;20208;-82
2021/10/28 06:54:23;;;;;;;19.70;11.40;;;11.20;82.30;;;;;;5098101;28;20287;-83
2021/10/28 07:04:47;;;;;;;18.23;11.80;;;11.10;82.40;;;;;;5100291;28;20196;-83
2021/10/28 07:07:17;;;;;;;20.73;11.98;;;11.00;82.50;;;;;;5101535;28;20180;-83
2021/10/28 07:10:30;;;;;;;23.90;12.30;;;11.10;82.60;;;;;;5101126;28;20175;-83
2021/10/28 07:15:10;;;;;;;26.08;12.07;;;11.10;82.60;;;;;;5128929;28;20214;-83
2021/10/28 07:17:46;;;;;;;16.25;10.30;;;11.10;82.70;;;;;;5130213;28;20163;-83
2021/10/28 07:28:19;;;;;;;24.17;13.27;;;11.30;82.70;;;;;;5128256;28;20194;-83
2021/10/28 07:33:22;;;;;;;20.05;13.57;;;11.10;82.60;;;;;;5118430;27;20195;-83
2021/10/28 07:35:56;;;;;;;15.75;10.73;;;11.10;83.00;;;;;;5118745;28;20173;-83
2021/10/28 08:05:21;;;;;;;17.70;11.38;;;11.40;83.20;;;;;;5116751;28;20680;-83
2021/10/28 08:19:03;;;;;;;21.15;12.43;;;11.60;83.80;;;;;;5074471;28;20172;-83
2021/10/28 08:29:40;;;;;;;21.20;10.43;;;11.70;83.40;;;;;;5116693;28;20174;-83
2021/10/28 08:32:05;;;;;;;19.00;10.63;;;11.80;83.30;;;;;;5115688;28;20211;-83
2021/10/28 08:34:34;;;;;;;25.33;10.90;;;11.70;83.10;;;;;;5113140;28;20223;-83
2021/10/28 08:37:08;;;;;;;29.23;12.25;;;11.80;82.80;;;;;;5122411;28;20254;-83
2021/10/28 08:39:43;;;;;;;20.95;10.50;;;11.90;82.90;;;;;;5117853;28;20525;-83
2021/10/28 08:42:11;;;;;;;23.23;12.38;;;12.00;83.00;;;;;;5128834;28;20163;-82
2021/10/28 08:44:44;;;;;;;21.42;11.23;;;12.10;82.50;;;;;;5132147;28;20199;-82
2021/10/28 08:47:14;;;;;;;20.15;10.57;;;12.20;82.20;;;;;;5134025;28;20175;-83
2021/10/28 08:49:52;;;;;;;22.70;12.80;;;12.20;81.70;;;;;;5128884;28;20231;-83
2021/10/28 08:55:29;;;;;;;25.60;12.75;;;12.20;81.80;;;;;;5125398;28;20191;-83
2021/10/28 09:32:17;;;;;;;16.80;11.10;;;12.90;79.30;;;;;;5100705;28;20259;-83
2021/10/28 09:51:12;;;;;;;15.77;10.50;;;13.50;78.10;;;;;;5101885;28;20594;-83
2021/10/28 09:59:44;;;;;;;15.75;8.85;;;13.70;76.60;;;;;;5102737;28;20158;-83
2021/10/28 10:04:58;;;;;;;13.55;9.10;;;13.80;75.90;;;;;;5102058;28;20629;-83
2021/10/28 10:07:24;;;;;;;13.32;8.13;;;13.80;75.60;;;;;;5101705;28;20248;-83
2021/10/28 10:09:51;;;;;;;14.03;7.97;;;13.90;75.90;;;;;;5103765;28;20543;-83
2021/10/28 10:12:18;;;;;;;11.93;8.45;;;14.00;75.60;;;;;;5107522;28;20457;-83
2021/10/28 10:14:44;;;;;;;13.68;8.80;;;14.10;75.10;;;;;;5120622;28;20286;-83
2021/10/28 10:17:11;;;;;;;12.20;8.23;;;14.00;74.70;;;;;;5121665;28;20246;-83
2021/10/28 10:19:44;;;;;;;12.07;8.52;;;14.10;74.90;;;;;;5120358;28;20175;-83
2021/10/28 10:25:08;;;;;;;15.90;9.45;;;14.40;74.10;;;;;;5120834;28;20191;-83
2021/10/28 12:50:46;;;;;;;4.82;4.00;;;17.00;62.90;;;;;;5077857;28;20606;-83
2021/10/28 12:53:51;;;;;;;6.53;3.70;;;17.20;61.80;;;;;;5075575;28;20224;-83
2021/10/28 13:37:59;;;;;;;7.45;3.45;;;17.40;58.40;;;;;;5133424;28;20185;-83
2021/10/28 13:51:32;;;;;;;4.10;2.70;;;17.50;57.40;;;;;;5110723;28;20183;-83
2021/10/28 14:31:43;;;;;;;6.72;3.60;;;17.40;56.50;;;;;;5063924;28;20181;-81
2021/10/28 14:36:58;;;;;;;2.95;2.65;;;17.40;57.40;;;;;;5082213;28;20191;-82
2021/10/28 14:39:30;;;;;;;3.95;2.00;;;17.40;58.10;;;;;;5077392;28;20180;-82
2021/10/28 15:34:24;;;;;;;7.70;4.40;;;17.40;58.90;;;;;;5101021;28;20199;-82
2021/10/28 16:24:37;;;;;;;3.28;3.00;;;16.60;63.00;;;;;;5073139;28;20218;-81
2021/10/28 16:27:04;;;;;;;8.25;3.88;;;16.80;62.80;;;;;;5085731;28;20184;-82
2021/10/28 16:29:30;;;;;;;5.15;3.10;;;16.70;63.00;;;;;;5087328;28;20165;-82
2021/10/28 16:31:56;;;;;;;9.18;3.72;;;16.70;63.30;;;;;;5077570;28;20208;-82
2021/10/28 16:34:23;;;;;;;5.97;4.00;;;16.70;63.80;;;;;;5059760;28;20193;-82
2021/10/28 16:36:49;;;;;;;4.18;3.38;;;16.50;64.00;;;;;;5078494;28;20611;-82
2021/10/28 16:39:15;;;;;;;5.68;3.92;;;16.20;65.00;;;;;;5076562;28;20173;-82
2021/10/28 16:41:47;;;;;;;5.68;3.50;;;16.00;65.60;;;;;;5076507;28;20208;-82
2021/10/28 16:44:15;;;;;;;6.45;4.13;;;15.90;66.40;;;;;;5077187;28;20235;-82
2021/10/28 16:46:42;;;;;;;7.82;3.53;;;16.00;66.40;;;;;;5096847;28;20180;-82
2021/10/28 16:49:12;;;;;;;7.70;3.85;;;15.80;66.70;;;;;;5097015;28;20250;-82
2021/10/28 16:51:38;;;;;;;4.32;3.50;;;15.80;67.10;;;;;;5097156;28;20234;-81
2021/10/28 16:54:05;;;;;;;7.75;3.85;;;15.80;67.40;;;;;;5095287;28;20536;-82
2021/10/28 16:56:31;;;;;;;5.25;3.85;;;15.80;67.60;;;;;;5076413;28;20183;-82
2021/10/28 16:58:58;;;;;;;10.25;4.15;;;15.70;68.00;;;;;;5076253;28;20180;-82
2021/10/28 17:01:25;;;;;;;5.18;3.63;;;15.70;68.20;;;;;;5080564;28;20639;-82
2021/10/28 17:03:52;;;;;;;6.45;3.85;;;15.60;68.70;;;;;;5083081;28;20747;-83
2021/10/28 17:06:18;;;;;;;7.13;4.20;;;15.50;69.10;;;;;;5083703;28;20191;-83
2021/10/28 17:08:45;;;;;;;7.20;4.20;;;15.50;69.30;;;;;;5088360;28;20176;-83
2021/10/28 17:11:11;;;;;;;7.00;4.05;;;15.60;69.40;;;;;;5098144;28;20199;-83
2021/10/28 17:13:38;;;;;;;8.82;4.55;;;15.50;69.60;;;;;;5110445;28;20666;-83
2021/10/28 17:16:05;;;;;;;8.93;4.75;;;15.50;69.80;;;;;;5090711;28;20702;-82
2021/10/28 17:18:32;;;;;;;8.85;4.43;;;15.50;69.90;;;;;;5094677;28;20180;-83
2021/10/28 17:21:03;;;;;;;5.78;4.05;;;15.50;70.00;;;;;;5097933;28;20175;-83
2021/10/28 17:23:34;;;;;;;5.10;4.45;;;15.60;69.90;;;;;;5083846;28;20671;-83
2021/10/28 17:26:03;;;;;;;6.63;4.63;;;15.70;69.80;;;;;;5082295;28;20180;-82
2021/10/28 17:28:30;;;;;;;5.85;4.60;;;15.70;70.10;;;;;;5102425;28;20187;-82
2021/10/28 17:30:56;;;;;;;9.75;5.22;;;15.60;70.10;;;;;;5102105;28;20184;-82
2021/10/28 17:33:22;;;;;;;5.83;4.70;;;15.40;70.20;;;;;;5101270;28;20744;-82
2021/10/28 17:35:48;;;;;;;7.67;5.40;;;15.30;70.90;;;;;;5102421;28;20176;-82
2021/10/28 17:38:14;;;;;;;8.30;6.23;;;15.30;70.90;;;;;;5092238;28;20173;-82
2021/10/28 17:40:39;;;;;;;7.77;4.77;;;15.20;71.30;;;;;;5087774;28;20486;-82
2021/10/28 17:43:10;;;;;;;10.30;4.80;;;15.10;71.90;;;;;;5096904;28;20209;-82
2021/10/28 17:45:37;;;;;;;8.95;5.75;;;15.00;72.10;;;;;;5101172;28;20398;-82
2021/10/28 17:48:04;;;;;;;7.43;5.05;;;15.00;72.30;;;;;;5099541;28;20180;-82
2021/10/28 17:50:29;;;;;;;7.45;4.75;;;14.90;72.40;;;;;;5095532;28;20256;-82
2021/10/28 17:52:55;;;;;;;6.40;5.70;;;14.90;72.60;;;;;;5098279;28;20290;-83
2021/10/28 17:55:23;;;;;;;8.23;5.60;;;14.70;73.00;;;;;;5087097;28;20196;-82
2021/10/28 17:57:50;;;;;;;8.45;4.80;;;14.70;73.20;;;;;;5098665;28;20265;-82
2021/10/28 18:00:18;;;;;;;7.93;5.65;;;14.70;73.40;;;;;;5099173;28;20168;-86
2021/10/28 18:02:44;;;;;;;10.35;5.85;;;14.70;73.60;;;;;;5099436;28;20183;-83
2021/10/28 18:05:11;;;;;;;6.93;5.22;;;14.60;73.40;;;;;;5098737;28;20203;-85
2021/10/28 18:07:38;;;;;;;10.75;5.38;;;14.50;73.80;;;;;;5098909;28;20191;-84
2021/10/28 18:10:05;;;;;;;8.40;5.93;;;14.40;74.00;;;;;;5098229;28;20172;-84
2021/10/28 18:12:34;;;;;;;11.75;5.72;;;14.40;74.20;;;;;;5098554;28;20195;-84
2021/10/28 18:15:00;;;;;;;6.00;5.40;;;14.30;74.30;;;;;;5099083;28;20249;-84
2021/10/28 18:17:27;;;;;;;8.50;6.45;;;14.40;74.50;;;;;;5097995;28;20221;-83
2021/10/28 18:19:53;;;;;;;8.68;5.82;;;14.40;74.30;;;;;;5098424;28;20179;-84
2021/10/28 18:22:19;;;;;;;13.90;5.50;;;14.30;74.40;;;;;;5099103;28;20183;-83
2021/10/28 18:24:45;;;;;;;6.13;5.30;;;14.30;74.60;;;;;;5098710;28;20196;-85
2021/10/28 18:27:11;;;;;;;12.10;6.17;;;14.30;74.60;;;;;;5099684;28;20456;-84
2021/10/28 18:29:38;;;;;;;8.93;6.82;;;14.30;74.60;;;;;;5099183;28;20592;-83
2021/10/28 18:32:07;;;;;;;8.75;5.60;;;14.30;74.40;;;;;;5098495;28;20200;-84
2021/10/28 18:34:34;;;;;;;6.65;5.88;;;14.20;74.30;;;;;;5098543;28;20736;-84
2021/10/28 18:37:00;;;;;;;6.57;5.25;;;14.10;74.50;;;;;;5099891;28;20195;-84
2021/10/28 18:39:27;;;;;;;11.32;7.35;;;14.10;74.70;;;;;;5100814;28;20635;-85
2021/10/28 18:41:53;;;;;;;12.98;6.60;;;14.10;74.50;;;;;;5100180;28;20210;-84
2021/10/28 18:44:22;;;;;;;9.60;6.38;;;14.10;74.50;;;;;;5088516;28;20229;-82
2021/10/28 18:46:48;;;;;;;9.18;6.32;;;14.20;74.40;;;;;;5101619;28;20218;-82
2021/10/28 18:49:14;;;;;;;7.93;7.20;;;14.20;74.30;;;;;;5103421;28;20243;-83
2021/10/28 18:51:43;;;;;;;9.32;6.70;;;14.10;74.50;;;;;;5102466;28;20203;-83
2021/10/28 18:54:09;;;;;;;6.15;5.55;;;14.00;74.40;;;;;;5102726;28;20192;-82
2021/10/28 18:56:35;;;;;;;9.75;6.32;;;14.00;74.60;;;;;;5101502;28;20183;-82
2021/10/28 18:59:01;;;;;;;17.13;7.53;;;14.10;74.60;;;;;;5101837;28;20183;-83
2021/10/28 19:01:28;;;;;;;8.45;6.18;;;14.10;74.10;;;;;;5101636;28;20405;-83
2021/10/28 19:03:54;;;;;;;7.45;6.32;;;14.10;74.90;;;;;;5094585;28;20188;-83
2021/10/28 19:06:21;;;;;;;7.90;5.68;;;14.10;74.20;;;;;;5101463;28;20175;-83
2021/10/28 19:08:47;;;;;;;10.52;6.80;;;14.00;74.30;;;;;;5099161;28;20638;-83
2021/10/28 19:11:17;;;;;;;8.60;6.60;;;13.90;75.50;;;;;;5092923;28;20191;-83
2021/10/28 19:13:46;;;;;;;7.10;5.72;;;14.00;74.90;;;;;;5116184;28;20445;-82
2021/10/28 19:16:13;;;;;;;9.13;6.22;;;14.00;74.50;;;;;;5121784;28;20171;-83
2021/10/28 19:18:40;;;;;;;10.10;7.13;;;13.90;74.70;;;;;;5119899;28;20179;-82
2021/10/28 19:21:06;;;;;;;12.98;6.53;;;13.80;75.00;;;;;;5120882;28;20246;-82
2021/10/28 19:23:32;;;;;;;13.52;7.00;;;13.90;75.10;;;;;;5116037;28;20218;-81
2021/10/28 19:25:59;;;;;;;7.93;6.15;;;13.90;75.00;;;;;;5099490;28;20693;-81
2021/10/28 19:28:25;;;;;;;10.70;6.57;;;13.90;74.90;;;;;;5099188;28;20180;-83
2021/10/28 19:30:57;;;;;;;8.48;6.13;;;14.00;75.00;;;;;;5101547;28;20184;-83
2021/10/28 19:33:31;;;;;;;11.35;6.88;;;14.10;74.80;;;;;;5099343;28;20584;-80
2021/10/28 19:36:01;;;;;;;7.55;6.38;;;14.20;74.50;;;;;;5100996;28;20524;-80
2021/10/28 19:46:28;;;;;;;13.63;7.25;;;13.90;74.80;;;;;;5102397;28;20205;-81
2021/10/28 19:48:54;;;;;;;9.73;6.88;;;13.80;74.50;;;;;;5105480;28;20229;-81
2021/10/28 19:51:20;;;;;;;9.83;7.40;;;13.90;74.60;;;;;;5105298;28;20184;-82
2021/10/28 19:53:48;;;;;;;8.45;7.07;;;13.80;74.50;;;;;;5103973;28;20224;-82
2021/10/28 19:56:15;;;;;;;10.75;8.57;;;13.90;74.70;;;;;;5095656;28;20226;-82
2021/10/28 19:58:48;;;;;;;9.85;7.25;;;13.90;74.50;;;;;;5081883;28;20168;-82
2021/10/28 20:22:50;;;;;;;8.95;7.30;;;13.60;76.20;;;;;;5061925;28;20689;-82
2021/10/28 20:25:25;;;;;;;10.98;8.15;;;13.60;75.50;;;;;;5082300;28;20257;-82
2021/10/28 20:27:52;;;;;;;8.00;6.70;;;13.40;75.40;;;;;;5096843;28;20535;-81
2021/10/28 20:30:37;;;;;;;10.68;8.02;;;13.20;75.70;;;;;;5078582;28;20168;-83
2021/10/28 20:33:02;;;;;;;13.05;7.60;;;13.20;76.20;;;;;;5061942;28;20238;-82
2021/10/28 20:35:51;;;;;;;9.33;8.10;;;13.20;76.20;;;;;;5076510;28;20176;-83
2021/10/28 20:38:14;;;;;;;9.82;7.75;;;13.20;76.30;;;;;;5076591;28;20414;-83
2021/10/28 20:40:40;;;;;;;11.10;8.10;;;13.30;76.50;;;;;;5078038;28;20665;-83
2021/10/28 20:43:05;;;;;;;11.27;8.43;;;13.30;76.50;;;;;;5061881;28;20184;-83
2021/10/28 20:45:31;;;;;;;14.80;8.50;;;13.20;76.30;;;;;;5079542;28;20176;-83
2021/10/28 20:47:57;;;;;;;11.87;8.00;;;13.10;76.60;;;;;;5082955;28;20183;-83
2021/10/28 20:50:26;;;;;;;10.88;8.00;;;13.10;76.70;;;;;;5083243;28;20804;-82
2021/10/28 20:52:53;;;;;;;15.20;9.15;;;13.30;76.50;;;;;;5086380;28;20211;-84
2021/10/28 20:55:19;;;;;;;9.40;7.97;;;13.40;76.40;;;;;;5088621;28;20196;-83
2021/10/28 20:57:48;;;;;;;14.07;8.45;;;13.20;76.00;;;;;;5088517;28;20176;-84
2021/10/28 21:00:17;;;;;;;12.18;8.13;;;13.20;76.20;;;;;;5097508;28;20199;-82
2021/10/28 21:02:44;;;;;;;11.18;8.25;;;13.20;76.00;;;;;;5100066;28;20173;-83
2021/10/28 21:05:13;;;;;;;8.90;7.75;;;13.30;76.10;;;;;;5097683;28;20204;-82
2021/10/28 21:07:41;;;;;;;10.85;8.05;;;13.20;76.10;;;;;;5086050;28;20184;-83
2021/10/28 21:10:12;;;;;;;9.07;7.47;;;13.20;76.10;;;;;;5081376;28;20177;-81
2021/10/28 21:12:40;;;;;;;17.10;10.55;;;13.20;76.20;;;;;;5097562;28;20286;-81
2021/10/28 21:15:07;;;;;;;14.45;8.50;;;13.20;76.00;;;;;;5122225;28;20195;-82
2021/10/28 21:17:34;;;;;;;15.68;8.95;;;13.20;75.90;;;;;;5117079;28;20626;-82
2021/10/28 21:20:01;;;;;;;11.63;8.80;;;13.10;76.10;;;;;;5100025;28;20237;-81
2021/10/28 21:22:27;;;;;;;14.38;8.50;;;13.20;76.20;;;;;;5100074;28;20604;-81
2021/10/28 21:24:52;;;;;;;12.00;7.43;;;13.00;76.40;;;;;;5090521;28;20230;-81
2021/10/28 21:27:20;;;;;;;11.97;8.87;;;13.20;76.60;;;;;;5080820;28;20443;-81
2021/10/28 21:29:46;;;;;;;11.82;7.70;;;13.20;76.40;;;;;;5100532;28;20433;-81
2021/10/28 21:32:12;;;;;;;13.20;9.30;;;13.20;76.30;;;;;;5098290;28;20197;-80
2021/10/28 21:34:41;;;;;;;12.73;9.38;;;13.30;76.10;;;;;;5082472;28;20817;-82
2021/10/28 21:37:10;;;;;;;10.75;7.93;;;13.30;75.80;;;;;;5080997;28;20180;-81
2021/10/28 21:39:36;;;;;;;9.98;8.02;;;13.20;75.80;;;;;;5081311;28;20169;-82
2021/10/28 21:42:02;;;;;;;12.97;9.80;;;13.10;76.00;;;;;;5080434;28;20180;-82
2021/10/28 21:44:29;;;;;;;13.75;8.05;;;13.10;76.10;;;;;;5081471;28;20905;-82
2021/10/28 21:46:54;;;;;;;13.60;9.55;;;13.10;76.20;;;;;;5080564;28;20185;-82
2021/10/28 21:49:20;;;;;;;12.43;7.60;;;12.90;76.20;;;;;;5094767;28;20176;-82
2021/10/28 21:51:50;;;;;;;11.77;8.27;;;13.00;76.40;;;;;;5099462;28;20199;-86
2021/10/28 21:57:09;;;;;;;10.80;8.55;;;12.80;76.50;;;;;;5100969;28;20233;-82
2021/10/28 22:26:22;;;;;;;11.05;7.53;;;12.60;76.60;;;;;;5080607;28;20643;-82
2021/10/28 22:28:48;;;;;;;8.93;7.30;;;12.70;76.60;;;;;;5080448;28;20169;-82
2021/10/28 22:31:13;;;;;;;11.60;8.27;;;12.70;76.40;;;;;;5079103;28;20518;-81
2021/10/28 22:33:40;;;;;;;9.80;7.47;;;12.80;76.30;;;;;;5073881;28;20593;-82